Dundee, Iowa
Current Conditions -  °F | °C
As of 12:15 AM on Wednesday 28 Jan 2015 (Local Time) from KIIB Reporting Station
Overcast Overcast  
Wind Chill: 17°   Ceiling: 1000
Heat Index: 28°   Visibility: 7mi
Dew Point: 27°   Wind: 14mph
Humidity: 93%   Direction: 140°SE
Pressure: 30.18"   Gusts: NA
Location:  42.58°N, 91.55°W
Report Text: KIIB 280615Z AUTO 14012KT 7SM OVC010 M02/M03 A3018 RMK AO2
Loading
Personal Weather Stations






























Interactive Weather Map New forecast layout! Learn more

10-Day Weather Forecast

Advertisements
Track Severe Weather on mobile